sensor_id;sensor_type;location;lat;lon;timestamp;P1;durP1;ratioP1;P2;durP2;ratioP2
35084;SDS011;21267;51.032;6.998;2023-07-02T00:11:57;6.10;;;4.07;;
35084;SDS011;21267;51.032;6.998;2023-07-02T00:14:23;6.93;;;2.90;;
35084;SDS011;21267;51.032;6.998;2023-07-02T00:16:50;10.70;;;2.88;;
35084;SDS011;21267;51.032;6.998;2023-07-02T00:19:17;7.37;;;3.60;;
35084;SDS011;21267;51.032;6.998;2023-07-02T00:21:44;4.22;;;3.03;;
35084;SDS011;21267;51.032;6.998;2023-07-02T00:24:11;8.95;;;3.00;;
35084;SDS011;21267;51.032;6.998;2023-07-02T00:26:38;6.50;;;3.28;;
35084;SDS011;21267;51.032;6.998;2023-07-02T00:29:06;5.53;;;3.25;;
35084;SDS011;21267;51.032;6.998;2023-07-02T00:31:35;5.93;;;3.67;;
35084;SDS011;21267;51.032;6.998;2023-07-02T00:34:02;12.53;;;5.00;;
35084;SDS011;21267;51.032;6.998;2023-07-02T00:36:30;8.25;;;3.30;;
35084;SDS011;21267;51.032;6.998;2023-07-02T00:38:58;6.88;;;3.10;;
35084;SDS011;21267;51.032;6.998;2023-07-02T00:41:25;12.50;;;3.95;;
35084;SDS011;21267;51.032;6.998;2023-07-02T00:43:52;8.80;;;4.97;;
35084;SDS011;21267;51.032;6.998;2023-07-02T00:46:22;10.98;;;4.35;;
35084;SDS011;21267;51.032;6.998;2023-07-02T00:48:52;5.80;;;3.90;;
35084;SDS011;21267;51.032;6.998;2023-07-02T00:51:24;13.32;;;5.13;;
35084;SDS011;21267;51.032;6.998;2023-07-02T00:53:54;9.23;;;4.85;;
35084;SDS011;21267;51.032;6.998;2023-07-02T00:56:22;9.48;;;4.47;;
35084;SDS011;21267;51.032;6.998;2023-07-02T00:58:51;9.40;;;4.13;;
35084;SDS011;21267;51.032;6.998;2023-07-02T01:01:25;8.50;;;5.13;;
35084;SDS011;21267;51.032;6.998;2023-07-02T01:04:00;9.13;;;4.57;;
35084;SDS011;21267;51.032;6.998;2023-07-02T01:06:29;9.13;;;5.30;;
35084;SDS011;21267;51.032;6.998;2023-07-02T01:09:02;9.60;;;4.03;;
35084;SDS011;21267;51.032;6.998;2023-07-02T01:16:37;12.65;;;5.65;;
35084;SDS011;21267;51.032;6.998;2023-07-02T01:19:12;12.52;;;6.72;;
35084;SDS011;21267;51.032;6.998;2023-07-02T01:21:48;12.50;;;6.20;;
35084;SDS011;21267;51.032;6.998;2023-07-02T01:24:15;14.13;;;7.47;;
35084;SDS011;21267;51.032;6.998;2023-07-02T01:26:43;10.82;;;4.30;;
35084;SDS011;21267;51.032;6.998;2023-07-02T01:29:15;11.95;;;5.93;;
35084;SDS011;21267;51.032;6.998;2023-07-02T01:31:43;10.55;;;5.82;;
35084;SDS011;21267;51.032;6.998;2023-07-02T01:34:12;12.70;;;7.25;;
35084;SDS011;21267;51.032;6.998;2023-07-02T01:36:39;10.57;;;6.15;;
35084;SDS011;21267;51.032;6.998;2023-07-02T01:39:07;13.70;;;5.90;;
35084;SDS011;21267;51.032;6.998;2023-07-02T01:41:41;13.48;;;6.53;;
35084;SDS011;21267;51.032;6.998;2023-07-02T01:44:09;13.70;;;7.47;;
35084;SDS011;21267;51.032;6.998;2023-07-02T01:46:36;12.88;;;5.38;;
35084;SDS011;21267;51.032;6.998;2023-07-02T01:49:03;13.17;;;6.20;;
35084;SDS011;21267;51.032;6.998;2023-07-02T01:51:30;10.65;;;6.00;;
35084;SDS011;21267;51.032;6.998;2023-07-02T01:53:57;11.23;;;5.90;;
35084;SDS011;21267;51.032;6.998;2023-07-02T01:56:23;17.40;;;8.80;;
35084;SDS011;21267;51.032;6.998;2023-07-02T01:58:50;11.13;;;5.95;;
35084;SDS011;21267;51.032;6.998;2023-07-02T02:01:17;10.17;;;5.60;;
35084;SDS011;21267;51.032;6.998;2023-07-02T02:03:44;15.07;;;6.30;;
35084;SDS011;21267;51.032;6.998;2023-07-02T02:06:11;15.37;;;9.13;;
35084;SDS011;21267;51.032;6.998;2023-07-02T02:08:37;19.50;;;8.40;;
35084;SDS011;21267;51.032;6.998;2023-07-02T02:11:04;10.60;;;5.83;;
35084;SDS011;21267;51.032;6.998;2023-07-02T02:13:32;10.90;;;6.78;;
35084;SDS011;21267;51.032;6.998;2023-07-02T02:15:59;17.40;;;9.50;;
35084;SDS011;21267;51.032;6.998;2023-07-02T02:18:26;15.97;;;6.63;;
35084;SDS011;21267;51.032;6.998;2023-07-02T02:20:52;14.00;;;7.20;;
35084;SDS011;21267;51.032;6.998;2023-07-02T02:23:19;16.77;;;8.30;;
35084;SDS011;21267;51.032;6.998;2023-07-02T02:25:46;11.93;;;6.43;;
35084;SDS011;21267;51.032;6.998;2023-07-02T02:28:13;19.70;;;9.63;;
35084;SDS011;21267;51.032;6.998;2023-07-02T02:30:40;21.07;;;9.97;;
35084;SDS011;21267;51.032;6.998;2023-07-02T02:33:06;21.20;;;9.73;;
35084;SDS011;21267;51.032;6.998;2023-07-02T02:35:33;24.38;;;10.65;;
35084;SDS011;21267;51.032;6.998;2023-07-02T02:38:03;21.33;;;10.48;;
35084;SDS011;21267;51.032;6.998;2023-07-02T02:40:31;20.77;;;11.85;;
35084;SDS011;21267;51.032;6.998;2023-07-02T02:42:57;17.43;;;10.37;;
35084;SDS011;21267;51.032;6.998;2023-07-02T02:45:24;18.73;;;10.23;;
35084;SDS011;21267;51.032;6.998;2023-07-02T02:47:51;16.23;;;9.67;;
35084;SDS011;21267;51.032;6.998;2023-07-02T02:50:18;21.57;;;10.17;;
35084;SDS011;21267;51.032;6.998;2023-07-02T02:55:13;13.10;;;9.37;;
35084;SDS011;21267;51.032;6.998;2023-07-02T03:00:09;15.25;;;9.65;;
35084;SDS011;21267;51.032;6.998;2023-07-02T03:02:38;19.75;;;11.85;;
35084;SDS011;21267;51.032;6.998;2023-07-02T03:05:05;20.13;;;7.57;;
35084;SDS011;21267;51.032;6.998;2023-07-02T03:07:32;17.70;;;11.25;;
35084;SDS011;21267;51.032;6.998;2023-07-02T03:09:59;16.00;;;7.28;;
35084;SDS011;21267;51.032;6.998;2023-07-02T03:12:26;17.27;;;9.57;;
35084;SDS011;21267;51.032;6.998;2023-07-02T03:14:53;14.63;;;7.70;;
35084;SDS011;21267;51.032;6.998;2023-07-02T03:17:22;18.90;;;12.20;;
35084;SDS011;21267;51.032;6.998;2023-07-02T03:19:49;18.48;;;10.60;;
35084;SDS011;21267;51.032;6.998;2023-07-02T03:24:43;22.07;;;10.50;;
35084;SDS011;21267;51.032;6.998;2023-07-02T03:27:19;20.38;;;11.73;;
35084;SDS011;21267;51.032;6.998;2023-07-02T03:29:49;17.07;;;9.27;;
35084;SDS011;21267;51.032;6.998;2023-07-02T03:32:18;22.92;;;12.57;;
35084;SDS011;21267;51.032;6.998;2023-07-02T03:34:45;27.80;;;14.63;;
35084;SDS011;21267;51.032;6.998;2023-07-02T03:37:11;21.90;;;13.00;;
35084;SDS011;21267;51.032;6.998;2023-07-02T03:39:38;25.38;;;13.40;;
35084;SDS011;21267;51.032;6.998;2023-07-02T03:42:05;19.40;;;10.80;;
35084;SDS011;21267;51.032;6.998;2023-07-02T03:44:32;15.83;;;8.50;;
35084;SDS011;21267;51.032;6.998;2023-07-02T03:46:59;20.20;;;11.35;;
35084;SDS011;21267;51.032;6.998;2023-07-02T03:49:26;23.00;;;14.07;;
35084;SDS011;21267;51.032;6.998;2023-07-02T03:51:53;22.95;;;13.60;;
35084;SDS011;21267;51.032;6.998;2023-07-02T03:54:20;25.73;;;12.82;;
35084;SDS011;21267;51.032;6.998;2023-07-02T03:56:47;19.77;;;13.27;;
35084;SDS011;21267;51.032;6.998;2023-07-02T03:59:14;23.40;;;13.93;;
35084;SDS011;21267;51.032;6.998;2023-07-02T04:01:41;24.17;;;13.70;;
35084;SDS011;21267;51.032;6.998;2023-07-02T04:04:08;22.63;;;13.60;;
35084;SDS011;21267;51.032;6.998;2023-07-02T04:06:35;16.10;;;9.03;;
35084;SDS011;21267;51.032;6.998;2023-07-02T04:09:02;26.87;;;14.77;;
35084;SDS011;21267;51.032;6.998;2023-07-02T04:11:30;27.48;;;14.40;;
35084;SDS011;21267;51.032;6.998;2023-07-02T04:13:57;24.80;;;13.73;;
35084;SDS011;21267;51.032;6.998;2023-07-02T04:16:24;20.73;;;12.05;;
35084;SDS011;21267;51.032;6.998;2023-07-02T04:18:59;26.25;;;13.38;;
35084;SDS011;21267;51.032;6.998;2023-07-02T04:21:26;22.97;;;12.47;;
35084;SDS011;21267;51.032;6.998;2023-07-02T04:23:52;23.95;;;14.85;;
35084;SDS011;21267;51.032;6.998;2023-07-02T04:26:19;30.52;;;15.23;;
35084;SDS011;21267;51.032;6.998;2023-07-02T04:29:07;23.83;;;15.25;;
35084;SDS011;21267;51.032;6.998;2023-07-02T04:31:33;24.97;;;15.70;;
35084;SDS011;21267;51.032;6.998;2023-07-02T04:34:00;30.67;;;15.00;;
35084;SDS011;21267;51.032;6.998;2023-07-02T04:36:27;23.98;;;12.48;;
35084;SDS011;21267;51.032;6.998;2023-07-02T04:38:54;26.23;;;15.82;;
35084;SDS011;21267;51.032;6.998;2023-07-02T04:41:21;28.13;;;12.25;;
35084;SDS011;21267;51.032;6.998;2023-07-02T04:43:48;27.30;;;13.85;;
35084;SDS011;21267;51.032;6.998;2023-07-02T04:46:15;28.42;;;16.17;;
35084;SDS011;21267;51.032;6.998;2023-07-02T04:48:43;26.02;;;13.60;;
35084;SDS011;21267;51.032;6.998;2023-07-02T04:51:09;28.20;;;15.60;;
35084;SDS011;21267;51.032;6.998;2023-07-02T04:53:37;24.50;;;14.90;;
35084;SDS011;21267;51.032;6.998;2023-07-02T04:56:04;28.00;;;16.70;;
35084;SDS011;21267;51.032;6.998;2023-07-02T04:58:33;30.65;;;17.92;;
35084;SDS011;21267;51.032;6.998;2023-07-02T05:01:00;27.43;;;16.53;;
35084;SDS011;21267;51.032;6.998;2023-07-02T05:03:27;27.50;;;17.37;;
35084;SDS011;21267;51.032;6.998;2023-07-02T05:05:54;39.67;;;17.80;;
35084;SDS011;21267;51.032;6.998;2023-07-02T05:08:21;30.42;;;18.02;;
35084;SDS011;21267;51.032;6.998;2023-07-02T05:10:48;32.60;;;17.60;;
35084;SDS011;21267;51.032;6.998;2023-07-02T05:13:15;32.58;;;17.00;;
35084;SDS011;21267;51.032;6.998;2023-07-02T05:15:42;36.47;;;19.07;;
35084;SDS011;21267;51.032;6.998;2023-07-02T05:18:09;28.77;;;15.17;;
35084;SDS011;21267;51.032;6.998;2023-07-02T05:20:36;33.13;;;18.07;;
35084;SDS011;21267;51.032;6.998;2023-07-02T05:23:03;32.77;;;19.37;;
35084;SDS011;21267;51.032;6.998;2023-07-02T05:25:30;28.55;;;15.45;;
35084;SDS011;21267;51.032;6.998;2023-07-02T05:27:59;30.58;;;18.70;;
35084;SDS011;21267;51.032;6.998;2023-07-02T05:30:26;30.77;;;18.70;;
35084;SDS011;21267;51.032;6.998;2023-07-02T05:32:53;31.95;;;18.30;;
35084;SDS011;21267;51.032;6.998;2023-07-02T05:35:19;36.07;;;18.33;;
35084;SDS011;21267;51.032;6.998;2023-07-02T05:37:52;33.30;;;19.67;;
35084;SDS011;21267;51.032;6.998;2023-07-02T05:40:19;34.70;;;19.15;;
35084;SDS011;21267;51.032;6.998;2023-07-02T05:42:48;35.22;;;20.50;;
35084;SDS011;21267;51.032;6.998;2023-07-02T05:45:15;33.15;;;19.65;;
35084;SDS011;21267;51.032;6.998;2023-07-02T05:47:48;31.00;;;17.58;;
35084;SDS011;21267;51.032;6.998;2023-07-02T05:50:22;33.47;;;18.33;;
35084;SDS011;21267;51.032;6.998;2023-07-02T05:52:59;31.23;;;20.17;;
35084;SDS011;21267;51.032;6.998;2023-07-02T05:55:29;30.08;;;19.40;;
35084;SDS011;21267;51.032;6.998;2023-07-02T05:57:56;31.33;;;16.33;;
35084;SDS011;21267;51.032;6.998;2023-07-02T06:00:29;38.28;;;20.58;;
35084;SDS011;21267;51.032;6.998;2023-07-02T06:02:56;42.13;;;20.40;;
35084;SDS011;21267;51.032;6.998;2023-07-02T06:05:26;37.00;;;19.15;;
35084;SDS011;21267;51.032;6.998;2023-07-02T06:07:54;32.92;;;20.48;;
35084;SDS011;21267;51.032;6.998;2023-07-02T06:10:24;35.35;;;16.05;;
35084;SDS011;21267;51.032;6.998;2023-07-02T06:12:51;31.10;;;17.93;;
35084;SDS011;21267;51.032;6.998;2023-07-02T06:15:20;35.08;;;17.67;;
35084;SDS011;21267;51.032;6.998;2023-07-02T06:17:59;27.23;;;12.30;;
35084;SDS011;21267;51.032;6.998;2023-07-02T06:20:35;32.72;;;18.88;;
35084;SDS011;21267;51.032;6.998;2023-07-02T06:23:02;29.15;;;16.33;;
35084;SDS011;21267;51.032;6.998;2023-07-02T06:25:43;30.65;;;16.48;;
35084;SDS011;21267;51.032;6.998;2023-07-02T06:28:20;29.23;;;14.77;;
35084;SDS011;21267;51.032;6.998;2023-07-02T06:33:39;33.83;;;18.33;;
35084;SDS011;21267;51.032;6.998;2023-07-02T06:36:10;36.50;;;19.30;;
35084;SDS011;21267;51.032;6.998;2023-07-02T06:38:57;37.28;;;19.05;;
35084;SDS011;21267;51.032;6.998;2023-07-02T06:41:34;31.35;;;17.55;;
35084;SDS011;21267;51.032;6.998;2023-07-02T06:44:12;27.63;;;17.50;;
35084;SDS011;21267;51.032;6.998;2023-07-02T06:46:50;26.55;;;13.63;;
35084;SDS011;21267;51.032;6.998;2023-07-02T06:49:48;39.35;;;15.55;;
35084;SDS011;21267;51.032;6.998;2023-07-02T06:53:07;33.30;;;19.58;;
35084;SDS011;21267;51.032;6.998;2023-07-02T06:56:02;36.65;;;18.77;;
35084;SDS011;21267;51.032;6.998;2023-07-02T06:58:54;30.65;;;20.65;;
35084;SDS011;21267;51.032;6.998;2023-07-02T07:01:52;31.77;;;17.58;;
35084;SDS011;21267;51.032;6.998;2023-07-02T07:04:33;30.00;;;16.40;;
35084;SDS011;21267;51.032;6.998;2023-07-02T07:07:13;32.95;;;17.48;;
35084;SDS011;21267;51.032;6.998;2023-07-02T07:09:53;32.88;;;16.83;;
35084;SDS011;21267;51.032;6.998;2023-07-02T07:12:27;30.08;;;15.57;;
35084;SDS011;21267;51.032;6.998;2023-07-02T07:17:36;30.45;;;17.10;;
35084;SDS011;21267;51.032;6.998;2023-07-02T07:20:27;31.88;;;18.17;;
35084;SDS011;21267;51.032;6.998;2023-07-02T07:22:54;26.92;;;13.57;;
35084;SDS011;21267;51.032;6.998;2023-07-02T07:25:21;22.45;;;11.02;;
35084;SDS011;21267;51.032;6.998;2023-07-02T07:27:56;29.63;;;16.25;;
35084;SDS011;21267;51.032;6.998;2023-07-02T07:30:55;30.67;;;18.00;;
35084;SDS011;21267;51.032;6.998;2023-07-02T07:33:33;44.88;;;20.48;;
35084;SDS011;21267;51.032;6.998;2023-07-02T07:36:00;31.77;;;16.08;;
35084;SDS011;21267;51.032;6.998;2023-07-02T07:38:36;25.45;;;14.63;;
35084;SDS011;21267;51.032;6.998;2023-07-02T07:41:04;35.33;;;18.42;;
35084;SDS011;21267;51.032;6.998;2023-07-02T07:43:31;30.77;;;15.40;;
35084;SDS011;21267;51.032;6.998;2023-07-02T07:46:01;33.38;;;16.95;;
35084;SDS011;21267;51.032;6.998;2023-07-02T07:48:54;26.50;;;15.00;;
35084;SDS011;21267;51.032;6.998;2023-07-02T07:51:24;31.05;;;16.83;;
35084;SDS011;21267;51.032;6.998;2023-07-02T07:53:54;29.35;;;16.20;;
35084;SDS011;21267;51.032;6.998;2023-07-02T07:56:21;29.67;;;16.58;;
35084;SDS011;21267;51.032;6.998;2023-07-02T07:58:47;33.97;;;15.80;;
35084;SDS011;21267;51.032;6.998;2023-07-02T08:01:14;32.07;;;18.63;;
35084;SDS011;21267;51.032;6.998;2023-07-02T08:03:41;28.75;;;17.38;;
35084;SDS011;21267;51.032;6.998;2023-07-02T08:06:08;25.17;;;13.13;;
35084;SDS011;21267;51.032;6.998;2023-07-02T08:08:35;27.20;;;13.00;;
35084;SDS011;21267;51.032;6.998;2023-07-02T08:11:02;29.47;;;16.87;;
35084;SDS011;21267;51.032;6.998;2023-07-02T08:13:29;31.75;;;15.30;;
35084;SDS011;21267;51.032;6.998;2023-07-02T08:15:56;23.27;;;13.07;;
35084;SDS011;21267;51.032;6.998;2023-07-02T08:18:23;25.15;;;15.23;;
35084;SDS011;21267;51.032;6.998;2023-07-02T08:20:50;21.20;;;13.17;;
35084;SDS011;21267;51.032;6.998;2023-07-02T08:23:17;31.50;;;14.90;;
35084;SDS011;21267;51.032;6.998;2023-07-02T08:25:43;24.60;;;14.17;;
35084;SDS011;21267;51.032;6.998;2023-07-02T08:28:10;22.83;;;12.27;;
35084;SDS011;21267;51.032;6.998;2023-07-02T08:30:37;25.53;;;11.60;;
35084;SDS011;21267;51.032;6.998;2023-07-02T08:33:04;24.00;;;10.63;;
35084;SDS011;21267;51.032;6.998;2023-07-02T08:35:31;25.57;;;12.90;;
35084;SDS011;21267;51.032;6.998;2023-07-02T08:37:58;18.63;;;10.13;;
35084;SDS011;21267;51.032;6.998;2023-07-02T08:40:25;27.00;;;14.75;;
35084;SDS011;21267;51.032;6.998;2023-07-02T08:42:52;28.07;;;15.27;;
35084;SDS011;21267;51.032;6.998;2023-07-02T08:45:18;22.97;;;11.30;;
35084;SDS011;21267;51.032;6.998;2023-07-02T08:47:48;23.65;;;12.80;;
35084;SDS011;21267;51.032;6.998;2023-07-02T08:50:17;24.35;;;14.63;;
35084;SDS011;21267;51.032;6.998;2023-07-02T08:52:44;26.67;;;14.68;;
35084;SDS011;21267;51.032;6.998;2023-07-02T08:55:11;25.80;;;12.35;;
35084;SDS011;21267;51.032;6.998;2023-07-02T08:57:38;23.57;;;12.10;;
35084;SDS011;21267;51.032;6.998;2023-07-02T09:00:09;27.92;;;13.70;;
35084;SDS011;21267;51.032;6.998;2023-07-02T09:02:37;14.82;;;8.45;;
35084;SDS011;21267;51.032;6.998;2023-07-02T09:05:04;26.30;;;12.70;;
35084;SDS011;21267;51.032;6.998;2023-07-02T09:07:31;15.55;;;8.95;;
35084;SDS011;21267;51.032;6.998;2023-07-02T09:09:58;22.13;;;11.43;;
35084;SDS011;21267;51.032;6.998;2023-07-02T09:12:26;22.30;;;13.23;;
35084;SDS011;21267;51.032;6.998;2023-07-02T09:14:54;25.58;;;13.65;;
35084;SDS011;21267;51.032;6.998;2023-07-02T09:17:43;23.45;;;11.63;;
35084;SDS011;21267;51.032;6.998;2023-07-02T09:20:10;25.35;;;13.48;;
35084;SDS011;21267;51.032;6.998;2023-07-02T09:22:37;23.90;;;13.13;;
35084;SDS011;21267;51.032;6.998;2023-07-02T09:25:06;20.63;;;10.88;;
35084;SDS011;21267;51.032;6.998;2023-07-02T09:27:41;18.52;;;12.13;;
35084;SDS011;21267;51.032;6.998;2023-07-02T09:32:44;25.80;;;14.15;;
35084;SDS011;21267;51.032;6.998;2023-07-02T09:35:12;17.90;;;9.55;;
35084;SDS011;21267;51.032;6.998;2023-07-02T09:37:44;22.50;;;12.00;;
35084;SDS011;21267;51.032;6.998;2023-07-02T09:40:12;23.98;;;13.85;;
35084;SDS011;21267;51.032;6.998;2023-07-02T09:42:39;27.05;;;13.60;;
35084;SDS011;21267;51.032;6.998;2023-07-02T09:45:09;24.25;;;13.43;;
35084;SDS011;21267;51.032;6.998;2023-07-02T09:47:38;15.25;;;7.93;;
35084;SDS011;21267;51.032;6.998;2023-07-02T09:50:09;20.77;;;12.13;;
35084;SDS011;21267;51.032;6.998;2023-07-02T09:52:38;18.83;;;9.55;;
35084;SDS011;21267;51.032;6.998;2023-07-02T09:55:06;23.67;;;11.40;;
35084;SDS011;21267;51.032;6.998;2023-07-02T09:57:34;30.52;;;15.50;;
35084;SDS011;21267;51.032;6.998;2023-07-02T10:00:03;24.30;;;14.35;;
35084;SDS011;21267;51.032;6.998;2023-07-02T10:02:32;18.85;;;13.32;;
35084;SDS011;21267;51.032;6.998;2023-07-02T10:04:59;16.38;;;9.30;;
35084;SDS011;21267;51.032;6.998;2023-07-02T10:07:27;24.55;;;15.18;;
35084;SDS011;21267;51.032;6.998;2023-07-02T10:09:55;19.05;;;11.48;;
35084;SDS011;21267;51.032;6.998;2023-07-02T10:12:23;26.10;;;14.27;;
35084;SDS011;21267;51.032;6.998;2023-07-02T10:14:51;15.80;;;9.73;;
35084;SDS011;21267;51.032;6.998;2023-07-02T10:17:26;24.48;;;14.13;;
35084;SDS011;21267;51.032;6.998;2023-07-02T10:19:59;22.95;;;12.45;;
35084;SDS011;21267;51.032;6.998;2023-07-02T10:22:27;27.13;;;12.00;;
35084;SDS011;21267;51.032;6.998;2023-07-02T10:24:57;24.70;;;12.30;;
35084;SDS011;21267;51.032;6.998;2023-07-02T10:27:38;27.38;;;15.80;;
35084;SDS011;21267;51.032;6.998;2023-07-02T10:30:06;25.58;;;14.23;;
35084;SDS011;21267;51.032;6.998;2023-07-02T10:32:35;24.95;;;15.40;;
35084;SDS011;21267;51.032;6.998;2023-07-02T10:37:42;19.60;;;9.77;;
35084;SDS011;21267;51.032;6.998;2023-07-02T10:42:47;22.88;;;12.25;;
35084;SDS011;21267;51.032;6.998;2023-07-02T10:45:15;24.20;;;13.00;;
35084;SDS011;21267;51.032;6.998;2023-07-02T10:50:16;21.50;;;11.80;;
35084;SDS011;21267;51.032;6.998;2023-07-02T10:52:44;16.05;;;7.47;;
35084;SDS011;21267;51.032;6.998;2023-07-02T10:55:16;17.73;;;13.07;;
35084;SDS011;21267;51.032;6.998;2023-07-02T10:58:02;23.40;;;14.38;;
35084;SDS011;21267;51.032;6.998;2023-07-02T11:00:30;19.67;;;10.00;;
35084;SDS011;21267;51.032;6.998;2023-07-02T11:02:58;32.95;;;14.55;;
35084;SDS011;21267;51.032;6.998;2023-07-02T11:05:26;18.92;;;11.48;;
35084;SDS011;21267;51.032;6.998;2023-07-02T11:07:55;18.77;;;9.25;;
35084;SDS011;21267;51.032;6.998;2023-07-02T11:10:34;24.50;;;13.52;;
35084;SDS011;21267;51.032;6.998;2023-07-02T11:13:11;22.98;;;12.50;;
35084;SDS011;21267;51.032;6.998;2023-07-02T11:15:38;19.52;;;12.25;;
35084;SDS011;21267;51.032;6.998;2023-07-02T11:18:11;18.60;;;11.15;;
35084;SDS011;21267;51.032;6.998;2023-07-02T11:20:40;27.10;;;13.15;;
35084;SDS011;21267;51.032;6.998;2023-07-02T11:23:18;20.02;;;11.05;;
35084;SDS011;21267;51.032;6.998;2023-07-02T11:25:55;20.45;;;13.73;;
35084;SDS011;21267;51.032;6.998;2023-07-02T11:28:22;18.67;;;10.25;;
35084;SDS011;21267;51.032;6.998;2023-07-02T11:30:49;16.40;;;9.35;;
35084;SDS011;21267;51.032;6.998;2023-07-02T11:33:16;23.42;;;13.05;;
35084;SDS011;21267;51.032;6.998;2023-07-02T11:35:43;17.17;;;9.88;;
35084;SDS011;21267;51.032;6.998;2023-07-02T11:38:10;27.35;;;16.45;;
35084;SDS011;21267;51.032;6.998;2023-07-02T11:40:37;23.88;;;14.68;;
35084;SDS011;21267;51.032;6.998;2023-07-02T11:43:04;24.33;;;14.75;;
35084;SDS011;21267;51.032;6.998;2023-07-02T11:45:32;22.58;;;13.95;;
35084;SDS011;21267;51.032;6.998;2023-07-02T11:47:59;18.70;;;10.00;;
35084;SDS011;21267;51.032;6.998;2023-07-02T11:50:26;21.20;;;11.40;;
35084;SDS011;21267;51.032;6.998;2023-07-02T11:52:53;22.80;;;13.93;;
35084;SDS011;21267;51.032;6.998;2023-07-02T11:55:20;23.40;;;14.10;;
35084;SDS011;21267;51.032;6.998;2023-07-02T11:57:47;30.70;;;17.75;;
35084;SDS011;21267;51.032;6.998;2023-07-02T12:00:16;28.13;;;18.75;;
35084;SDS011;21267;51.032;6.998;2023-07-02T12:02:43;26.27;;;13.90;;
35084;SDS011;21267;51.032;6.998;2023-07-02T12:05:10;24.30;;;12.60;;
35084;SDS011;21267;51.032;6.998;2023-07-02T12:07:38;21.33;;;11.65;;
35084;SDS011;21267;51.032;6.998;2023-07-02T12:10:06;20.58;;;12.20;;
35084;SDS011;21267;51.032;6.998;2023-07-02T12:12:34;17.98;;;10.55;;
35084;SDS011;21267;51.032;6.998;2023-07-02T12:15:01;15.38;;;8.25;;
35084;SDS011;21267;51.032;6.998;2023-07-02T12:17:28;18.67;;;11.85;;
35084;SDS011;21267;51.032;6.998;2023-07-02T12:19:56;16.35;;;10.45;;
35084;SDS011;21267;51.032;6.998;2023-07-02T12:22:23;18.75;;;10.75;;
35084;SDS011;21267;51.032;6.998;2023-07-02T12:24:50;17.95;;;10.32;;
35084;SDS011;21267;51.032;6.998;2023-07-02T12:27:19;23.33;;;11.40;;
35084;SDS011;21267;51.032;6.998;2023-07-02T12:29:47;14.35;;;8.88;;
35084;SDS011;21267;51.032;6.998;2023-07-02T12:32:15;17.02;;;9.63;;
35084;SDS011;21267;51.032;6.998;2023-07-02T12:34:42;16.33;;;8.13;;
35084;SDS011;21267;51.032;6.998;2023-07-02T12:37:09;16.93;;;8.50;;
35084;SDS011;21267;51.032;6.998;2023-07-02T12:39:35;9.70;;;5.40;;
35084;SDS011;21267;51.032;6.998;2023-07-02T12:42:02;10.93;;;6.43;;
35084;SDS011;21267;51.032;6.998;2023-07-02T12:44:29;18.73;;;9.45;;
35084;SDS011;21267;51.032;6.998;2023-07-02T12:46:56;14.50;;;7.80;;
35084;SDS011;21267;51.032;6.998;2023-07-02T12:49:23;10.43;;;6.10;;
35084;SDS011;21267;51.032;6.998;2023-07-02T12:51:50;17.15;;;9.27;;
35084;SDS011;21267;51.032;6.998;2023-07-02T12:54:17;11.02;;;6.78;;
35084;SDS011;21267;51.032;6.998;2023-07-02T12:56:44;13.23;;;7.93;;
35084;SDS011;21267;51.032;6.998;2023-07-02T12:59:10;11.73;;;6.70;;
35084;SDS011;21267;51.032;6.998;2023-07-02T13:01:37;11.15;;;5.90;;
35084;SDS011;21267;51.032;6.998;2023-07-02T13:04:04;13.05;;;8.82;;
35084;SDS011;21267;51.032;6.998;2023-07-02T13:06:31;13.63;;;6.30;;
35084;SDS011;21267;51.032;6.998;2023-07-02T13:09:01;13.63;;;7.15;;
35084;SDS011;21267;51.032;6.998;2023-07-02T13:11:28;17.40;;;8.85;;
35084;SDS011;21267;51.032;6.998;2023-07-02T13:13:55;14.38;;;7.10;;
35084;SDS011;21267;51.032;6.998;2023-07-02T13:16:22;14.85;;;8.65;;
35084;SDS011;21267;51.032;6.998;2023-07-02T13:18:51;14.60;;;10.45;;
35084;SDS011;21267;51.032;6.998;2023-07-02T13:21:19;14.45;;;8.65;;
35084;SDS011;21267;51.032;6.998;2023-07-02T13:23:46;12.57;;;8.27;;
35084;SDS011;21267;51.032;6.998;2023-07-02T13:26:13;16.30;;;9.82;;
35084;SDS011;21267;51.032;6.998;2023-07-02T13:28:39;15.02;;;8.95;;
35084;SDS011;21267;51.032;6.998;2023-07-02T13:31:07;16.40;;;8.70;;
35084;SDS011;21267;51.032;6.998;2023-07-02T13:33:35;15.93;;;10.05;;
35084;SDS011;21267;51.032;6.998;2023-07-02T13:36:02;16.95;;;10.35;;
35084;SDS011;21267;51.032;6.998;2023-07-02T13:38:29;15.88;;;9.65;;
35084;SDS011;21267;51.032;6.998;2023-07-02T13:40:56;14.40;;;9.48;;
35084;SDS011;21267;51.032;6.998;2023-07-02T13:43:23;14.88;;;7.68;;
35084;SDS011;21267;51.032;6.998;2023-07-02T13:45:50;19.63;;;11.02;;
35084;SDS011;21267;51.032;6.998;2023-07-02T13:51:01;12.52;;;8.40;;
35084;SDS011;21267;51.032;6.998;2023-07-02T13:53:39;13.77;;;8.43;;
35084;SDS011;21267;51.032;6.998;2023-07-02T13:56:12;16.13;;;9.85;;
35084;SDS011;21267;51.032;6.998;2023-07-02T14:01:33;18.40;;;10.60;;
35084;SDS011;21267;51.032;6.998;2023-07-02T14:06:30;21.10;;;12.10;;
35084;SDS011;21267;51.032;6.998;2023-07-02T14:09:03;19.85;;;11.85;;
35084;SDS011;21267;51.032;6.998;2023-07-02T14:11:36;18.35;;;10.93;;
35084;SDS011;21267;51.032;6.998;2023-07-02T14:14:05;14.18;;;7.38;;
35084;SDS011;21267;51.032;6.998;2023-07-02T14:16:33;21.40;;;9.10;;
35084;SDS011;21267;51.032;6.998;2023-07-02T14:19:04;15.98;;;8.40;;
35084;SDS011;21267;51.032;6.998;2023-07-02T14:21:31;13.73;;;7.60;;
35084;SDS011;21267;51.032;6.998;2023-07-02T14:24:04;15.23;;;9.82;;
35084;SDS011;21267;51.032;6.998;2023-07-02T14:26:33;17.60;;;8.82;;
35084;SDS011;21267;51.032;6.998;2023-07-02T14:29:00;19.52;;;10.25;;
35084;SDS011;21267;51.032;6.998;2023-07-02T14:31:30;15.88;;;10.00;;
35084;SDS011;21267;51.032;6.998;2023-07-02T14:34:00;17.65;;;10.93;;
35084;SDS011;21267;51.032;6.998;2023-07-02T14:36:27;17.27;;;10.38;;
35084;SDS011;21267;51.032;6.998;2023-07-02T14:38:56;15.70;;;10.38;;
35084;SDS011;21267;51.032;6.998;2023-07-02T14:41:24;18.70;;;9.55;;
35084;SDS011;21267;51.032;6.998;2023-07-02T14:44:02;12.43;;;7.75;;
35084;SDS011;21267;51.032;6.998;2023-07-02T14:47:03;14.35;;;8.80;;
35084;SDS011;21267;51.032;6.998;2023-07-02T14:49:43;19.42;;;12.40;;
35084;SDS011;21267;51.032;6.998;2023-07-02T14:52:10;19.27;;;12.68;;
35084;SDS011;21267;51.032;6.998;2023-07-02T14:54:38;17.05;;;7.78;;
35084;SDS011;21267;51.032;6.998;2023-07-02T14:57:05;18.75;;;11.10;;
35084;SDS011;21267;51.032;6.998;2023-07-02T14:59:32;22.30;;;11.93;;
35084;SDS011;21267;51.032;6.998;2023-07-02T15:01:59;18.10;;;9.73;;
35084;SDS011;21267;51.032;6.998;2023-07-02T15:04:27;14.52;;;8.20;;
35084;SDS011;21267;51.032;6.998;2023-07-02T15:06:55;15.82;;;10.40;;
35084;SDS011;21267;51.032;6.998;2023-07-02T15:09:23;23.75;;;11.88;;
35084;SDS011;21267;51.032;6.998;2023-07-02T15:11:49;17.55;;;9.10;;
35084;SDS011;21267;51.032;6.998;2023-07-02T15:14:16;14.27;;;8.07;;
35084;SDS011;21267;51.032;6.998;2023-07-02T15:16:43;16.98;;;10.30;;
35084;SDS011;21267;51.032;6.998;2023-07-02T15:19:10;16.25;;;10.05;;
35084;SDS011;21267;51.032;6.998;2023-07-02T15:21:38;18.63;;;11.07;;
35084;SDS011;21267;51.032;6.998;2023-07-02T15:24:06;12.88;;;8.27;;
35084;SDS011;21267;51.032;6.998;2023-07-02T15:26:32;11.25;;;5.47;;